Time;durP1;ratioP1;P1;durP2;ratioP2;P2;SDS_P1;SDS_P2;PMS_P1;PMS_P2;Temp;Humidity;BMP_temperature;BMP_pressure;BME280_temperature;BME280_humidity;BME280_pressure;Samples;Min_cycle;Max_cycle;Signal;HPM_P1;HPM_P2
2021/09/09 00:02:05;;;;;;;;;17.75;15.50;;;;;26.10;63.07;100689.19;5017810;28;45417;-82
2021/09/09 00:04:31;;;;;;;;;20.75;16.50;;;;;26.07;63.08;100678.59;5019319;28;45564;-83
2021/09/09 00:06:56;;;;;;;;;15.25;14.75;;;;;26.10;62.68;100693.59;5019934;28;45306;-82
2021/09/09 00:09:22;;;;;;;;;21.00;16.00;;;;;26.09;63.19;100695.38;5025422;28;45251;-83
2021/09/09 00:11:47;;;;;;;;;21.00;20.50;;;;;26.09;62.58;100698.03;5029595;28;45461;-82
2021/09/09 00:14:13;;;;;;;;;21.25;17.75;;;;;26.09;62.45;100705.06;5037249;28;45229;-82
2021/09/09 00:16:40;;;;;;;;;19.25;16.50;;;;;26.08;63.20;100712.19;5030916;28;46156;-82
2021/09/09 00:19:06;;;;;;;;;21.50;17.75;;;;;26.07;63.23;100715.72;5019108;28;45375;-82
2021/09/09 00:21:31;;;;;;;;;22.00;19.00;;;;;26.05;63.41;100714.03;5023321;28;45425;-82
2021/09/09 00:23:57;;;;;;;;;23.25;18.25;;;;;26.06;62.75;100711.34;5020796;28;45276;-82
2021/09/09 00:26:23;;;;;;;;;19.25;18.75;;;;;26.04;62.81;100709.63;5019018;28;45343;-83
2021/09/09 00:28:49;;;;;;;;;16.50;12.75;;;;;25.97;63.07;100706.22;5018857;28;45323;-83
2021/09/09 00:31:14;;;;;;;;;18.50;17.75;;;;;25.92;62.94;100702.78;5018710;28;45359;-82
2021/09/09 00:33:42;;;;;;;;;20.50;16.75;;;;;25.85;63.25;100690.56;5032414;28;45291;-82
2021/09/09 00:36:07;;;;;;;;;19.25;17.00;;;;;25.83;62.66;100698.56;5021893;28;46193;-82
2021/09/09 00:38:33;;;;;;;;;16.25;16.25;;;;;25.84;63.06;100692.34;5029766;28;45387;-83
2021/09/09 00:40:59;;;;;;;;;19.50;16.00;;;;;25.80;63.18;100686.25;5036858;28;45315;-82
2021/09/09 00:43:24;;;;;;;;;18.75;16.75;;;;;25.78;62.88;100680.09;5036822;28;45236;-83
2021/09/09 00:45:54;;;;;;;;;19.75;16.75;;;;;25.74;63.27;100677.53;5035689;28;45441;-82
2021/09/09 00:48:21;;;;;;;;;17.00;15.00;;;;;25.73;63.80;100673.13;5017585;28;45795;-82
2021/09/09 00:50:47;;;;;;;;;22.50;18.25;;;;;25.66;63.92;100672.38;5017195;28;45344;-82
2021/09/09 00:53:13;;;;;;;;;19.50;16.50;;;;;25.60;63.93;100678.69;5026991;28;45247;-82
2021/09/09 00:55:40;;;;;;;;;20.75;19.00;;;;;25.51;63.67;100676.22;5036426;28;45493;-81
2021/09/09 00:58:10;;;;;;;;;15.25;15.25;;;;;25.45;63.80;100677.22;5042404;28;45289;-82
2021/09/09 01:00:37;;;;;;;;;18.25;16.50;;;;;25.40;64.39;100681.72;5043076;28;45325;-82
2021/09/09 01:03:06;;;;;;;;;17.75;17.50;;;;;25.33;64.19;100686.22;5029255;28;45379;-82
2021/09/09 01:05:36;;;;;;;;;17.75;17.75;;;;;25.30;64.01;100685.41;5016321;28;46082;-82
2021/09/09 01:08:03;;;;;;;;;18.00;15.75;;;;;25.27;65.14;100694.28;5016418;28;45220;-82
2021/09/09 01:10:28;;;;;;;;;18.75;17.75;;;;;25.24;65.53;100697.00;5016727;28;45268;-82
2021/09/09 01:12:54;;;;;;;;;19.75;15.50;;;;;25.19;65.16;100694.44;5024091;28;45511;-82
2021/09/09 01:15:21;;;;;;;;;17.75;16.75;;;;;25.18;64.54;100697.13;5036191;28;45500;-82
2021/09/09 01:17:47;;;;;;;;;19.50;17.00;;;;;25.17;64.88;100698.00;5036062;28;45871;-82
2021/09/09 01:20:13;;;;;;;;;20.75;18.25;;;;;25.16;65.10;100697.13;5019163;28;45337;-82
2021/09/09 01:22:39;;;;;;;;;21.25;18.50;;;;;25.15;64.51;100708.66;5021406;28;45450;-82
2021/09/09 01:25:05;;;;;;;;;25.75;21.50;;;;;25.10;65.57;100712.28;5037810;28;46117;-82
2021/09/09 01:27:31;;;;;;;;;21.50;19.00;;;;;25.11;65.25;100714.00;5044695;28;45557;-82
2021/09/09 01:29:56;;;;;;;;;19.50;19.25;;;;;25.12;64.86;100716.63;5057494;28;45331;-83
2021/09/09 01:32:22;;;;;;;;;17.50;16.00;;;;;25.12;65.21;100719.28;5041735;28;45230;-82
2021/09/09 01:34:48;;;;;;;;;21.00;18.25;;;;;25.14;65.27;100708.66;5020488;28;45343;-82
2021/09/09 01:37:14;;;;;;;;;21.00;19.50;;;;;25.15;65.34;100700.69;5015723;28;45354;-82
2021/09/09 01:39:45;;;;;;;;;20.00;17.25;;;;;25.17;64.75;100708.63;5017300;28;45430;-81
2021/09/09 01:42:11;;;;;;;;;19.50;17.00;;;;;25.16;64.69;100699.78;5027664;28;45291;-82
2021/09/09 01:44:37;;;;;;;;;18.50;16.00;;;;;25.16;64.69;100704.22;5019505;28;45236;-82
2021/09/09 01:47:03;;;;;;;;;21.75;18.00;;;;;25.17;64.70;100712.13;5017965;28;45445;-82
2021/09/09 01:49:29;;;;;;;;;19.00;16.75;;;;;25.15;65.24;100711.31;5019513;28;45345;-82
2021/09/09 01:51:55;;;;;;;;;22.25;22.00;;;;;25.19;65.32;100720.06;5028574;28;45612;-83
2021/09/09 01:54:21;;;;;;;;;18.25;18.00;;;;;25.15;64.93;100724.53;5041952;28;45432;-82
2021/09/09 01:56:47;;;;;;;;;20.25;18.25;;;;;25.15;65.26;100726.31;5043044;28;45334;-83
2021/09/09 01:59:13;;;;;;;;;24.75;20.75;;;;;25.17;65.12;100724.50;5039515;28;45629;-83
2021/09/09 02:01:38;;;;;;;;;24.75;21.25;;;;;25.15;64.84;100726.31;5032408;28;45359;-82
2021/09/09 02:04:04;;;;;;;;;20.00;19.25;;;;;25.16;64.90;100726.25;5019207;28;45311;-83
2021/09/09 02:06:30;;;;;;;;;22.75;20.75;;;;;25.17;65.35;100721.84;5019382;28;45398;-83
2021/09/09 02:08:55;;;;;;;;;19.50;17.00;;;;;25.18;64.94;100732.41;5019130;28;45375;-82
2021/09/09 02:11:21;;;;;;;;;18.25;18.25;;;;;25.16;64.74;100722.75;5043885;28;45389;-83
2021/09/09 02:13:47;;;;;;;;;23.75;19.25;;;;;25.16;64.83;100723.63;5038757;28;46097;-82
2021/09/09 02:16:12;;;;;;;;;21.75;19.75;;;;;25.14;64.66;100719.25;5038581;28;45235;-82
2021/09/09 02:18:39;;;;;;;;;22.75;20.75;;;;;25.10;64.68;100725.53;5039158;28;45450;-82
2021/09/09 02:21:05;;;;;;;;;20.75;20.75;;;;;25.07;65.67;100723.78;5045606;28;45652;-82
2021/09/09 02:23:31;;;;;;;;;20.00;19.75;;;;;25.03;65.37;100714.16;5025839;28;45432;-82
2021/09/09 02:25:57;;;;;;;;;27.50;23.00;;;;;24.98;65.05;100714.22;5023380;28;45307;-82
2021/09/09 02:28:23;;;;;;;;;26.00;23.25;;;;;24.95;64.92;100726.63;5039217;28;45433;-83
2021/09/09 02:30:49;;;;;;;;;20.50;18.75;;;;;24.90;65.09;100716.09;5039677;28;45336;-83
2021/09/09 02:33:14;;;;;;;;;18.00;17.75;;;;;24.91;65.29;100711.72;5036587;28;45500;-83
2021/09/09 02:35:40;;;;;;;;;22.75;21.00;;;;;24.84;65.80;100710.94;5038280;28;45471;-83
2021/09/09 02:38:07;;;;;;;;;24.50;22.75;;;;;24.81;65.73;100706.56;5038583;28;45335;-83
2021/09/09 02:40:33;;;;;;;;;21.75;20.00;;;;;24.82;65.35;100718.00;5038751;28;45545;-81
2021/09/09 02:42:58;;;;;;;;;23.00;19.25;;;;;24.82;65.55;100720.66;5029596;28;45819;-82
2021/09/09 02:45:24;;;;;;;;;26.50;21.00;;;;;24.77;65.99;100725.19;5022376;28;45363;-82
2021/09/09 02:47:50;;;;;;;;;22.25;20.75;;;;;24.73;66.14;100722.56;5026379;28;45397;-82
2021/09/09 02:50:16;;;;;;;;;21.00;20.50;;;;;24.70;65.92;100722.59;5039474;28;45338;-82
2021/09/09 02:52:42;;;;;;;;;25.75;23.25;;;;;24.69;66.30;100727.94;5042130;28;46075;-82
2021/09/09 02:55:09;;;;;;;;;26.50;19.50;;;;;24.67;66.03;100720.00;5037293;28;45332;-82
2021/09/09 02:57:35;;;;;;;;;26.00;22.75;;;;;24.66;66.00;100726.19;5038710;28;45481;-82
2021/09/09 03:00:01;;;;;;;;;22.25;21.50;;;;;24.64;65.75;100725.31;5038378;28;45249;-82
2021/09/09 03:02:27;;;;;;;;;20.50;19.00;;;;;24.65;66.40;100720.88;5037010;28;45901;-82
2021/09/09 03:04:53;;;;;;;;;24.50;22.25;;;;;24.65;65.78;100705.91;5037539;28;45208;-82
2021/09/09 03:07:19;;;;;;;;;21.50;21.00;;;;;24.62;66.07;100710.38;5037481;28;45400;-83
2021/09/09 03:09:44;;;;;;;;;19.75;19.75;;;;;24.57;66.25;100711.31;5038606;28;45537;-82
2021/09/09 03:12:10;;;;;;;;;24.50;19.25;;;;;24.56;65.82;100708.69;5027529;28;45224;-82
2021/09/09 03:14:35;;;;;;;;;23.00;20.00;;;;;24.56;66.09;100713.97;5037798;28;45295;-82
2021/09/09 03:17:01;;;;;;;;;19.50;18.00;;;;;24.52;65.88;100701.69;5033963;28;45343;-83
2021/09/09 03:19:27;;;;;;;;;18.50;18.00;;;;;24.53;65.72;100714.88;5042812;28;45299;-82
2021/09/09 03:21:52;;;;;;;;;23.00;22.25;;;;;24.51;66.25;100716.66;5034660;28;45469;-83
2021/09/09 03:24:18;;;;;;;;;21.25;20.50;;;;;24.52;65.58;100710.47;5038280;28;45387;-82
2021/09/09 03:26:44;;;;;;;;;27.25;22.00;;;;;24.50;65.93;100711.41;5037719;28;45351;-83
2021/09/09 03:29:10;;;;;;;;;22.50;20.50;;;;;24.47;66.01;100716.75;5038117;28;45539;-82
2021/09/09 03:31:36;;;;;;;;;20.75;19.50;;;;;24.48;66.13;100713.19;5022369;28;45823;-82
2021/09/09 03:34:01;;;;;;;;;17.75;17.75;;;;;24.49;65.50;100712.31;5031021;28;45536;-82
2021/09/09 03:36:27;;;;;;;;;16.25;16.25;;;;;24.48;66.12;100706.16;5018116;28;45247;-82
2021/09/09 03:38:53;;;;;;;;;20.50;20.00;;;;;24.48;65.95;100708.81;5018078;28;45415;-83
2021/09/09 03:41:19;;;;;;;;;19.50;19.50;;;;;24.48;66.28;100700.84;5018361;28;46089;-83
2021/09/09 03:43:45;;;;;;;;;23.00;21.25;;;;;24.46;65.68;100702.66;5025000;28;45227;-83
2021/09/09 03:46:10;;;;;;;;;19.00;18.75;;;;;24.46;66.34;100693.84;5026239;28;45613;-82
2021/09/09 03:48:36;;;;;;;;;22.25;21.25;;;;;24.49;65.93;100693.78;5026499;28;45288;-83
2021/09/09 03:51:02;;;;;;;;;16.75;15.50;;;;;24.50;66.27;100692.88;5028592;28;45592;-83
2021/09/09 03:53:28;;;;;;;;;22.25;20.25;;;;;24.49;65.69;100696.44;5025885;28;45325;-83
2021/09/09 03:55:53;;;;;;;;;22.00;17.50;;;;;24.48;65.75;100694.69;5020700;28;45523;-83
2021/09/09 03:58:19;;;;;;;;;22.50;21.25;;;;;24.44;65.39;100693.84;5017964;28;45530;-82
2021/09/09 04:00:45;;;;;;;;;25.50;21.00;;;;;24.42;65.49;100695.63;5017878;28;46126;-82
2021/09/09 04:03:11;;;;;;;;;19.25;17.00;;;;;24.40;65.28;100700.97;5024953;28;45524;-82
2021/09/09 04:05:36;;;;;;;;;16.75;16.75;;;;;24.42;65.48;100703.56;5028556;28;45474;-82
2021/09/09 04:08:02;;;;;;;;;24.75;21.25;;;;;24.40;66.15;100700.97;5036576;28;45308;-82
2021/09/09 04:10:28;;;;;;;;;22.00;21.50;;;;;24.36;66.06;100699.25;5045566;28;45370;-82
2021/09/09 04:12:53;;;;;;;;;20.50;19.75;;;;;24.37;65.73;100694.84;5032729;28;45300;-82
2021/09/09 04:15:19;;;;;;;;;24.50;18.50;;;;;24.36;66.17;100698.38;5039149;28;45252;-81
2021/09/09 04:17:45;;;;;;;;;22.00;19.75;;;;;24.36;66.17;100693.09;5037373;28;45548;-81
2021/09/09 04:20:11;;;;;;;;;20.50;19.25;;;;;24.35;66.50;100692.19;5036624;28;45950;-82
2021/09/09 04:22:36;;;;;;;;;25.00;20.75;;;;;24.33;65.90;100685.19;5027535;28;45503;-82
2021/09/09 04:25:04;;;;;;;;;21.25;21.00;;;;;24.30;66.16;100688.75;5036902;28;45348;-82
2021/09/09 04:27:31;;;;;;;;;22.25;20.50;;;;;24.29;66.11;100687.00;5035987;28;45315;-81
2021/09/09 04:29:57;;;;;;;;;23.25;20.50;;;;;24.23;66.59;100687.97;5034607;28;46090;-81
2021/09/09 04:32:24;;;;;;;;;25.50;22.25;;;;;24.24;66.52;100686.22;5035201;28;45374;-81
2021/09/09 04:34:50;;;;;;;;;23.75;21.25;;;;;24.22;66.80;100683.56;5037612;28;45504;-81
2021/09/09 04:37:15;;;;;;;;;27.00;25.50;;;;;24.22;66.47;100682.72;5044616;28;45613;-80
2021/09/09 04:39:41;;;;;;;;;27.75;21.25;;;;;24.22;66.52;100680.06;5041473;28;46214;-80
2021/09/09 04:42:07;;;;;;;;;21.50;21.50;;;;;24.22;66.26;100677.41;5023231;28;45257;-80
2021/09/09 04:44:32;;;;;;;;;25.00;24.50;;;;;24.20;66.26;100673.91;5016765;28;45375;-80
2021/09/09 04:46:58;;;;;;;;;18.50;17.75;;;;;24.20;66.56;100672.13;5018276;28;45488;-80
2021/09/09 04:49:24;;;;;;;;;26.50;24.00;;;;;24.20;66.10;100672.13;5035562;28;46573;-80
2021/09/09 04:51:49;;;;;;;;;29.50;24.25;;;;;24.18;66.45;100667.78;5036414;28;45376;-84
2021/09/09 04:54:15;;;;;;;;;23.00;19.25;;;;;24.19;66.40;100670.38;5032739;28;45385;-83
2021/09/09 04:56:41;;;;;;;;;21.75;20.50;;;;;24.19;66.46;100661.59;5017027;28;45624;-83
2021/09/09 04:59:06;;;;;;;;;27.00;25.50;;;;;24.22;66.15;100669.50;5022726;28;45426;-82
2021/09/09 05:01:32;;;;;;;;;27.25;26.50;;;;;24.20;66.29;100666.84;5037026;28;45356;-81
2021/09/09 05:03:58;;;;;;;;;25.50;21.75;;;;;24.19;66.54;100672.16;5038641;28;45407;-83
2021/09/09 05:06:23;;;;;;;;;22.75;21.75;;;;;24.16;66.63;100672.19;5024972;28;45362;-83
2021/09/09 05:08:49;;;;;;;;;25.25;23.25;;;;;24.14;66.69;100668.69;5021872;28;45557;-82
2021/09/09 05:11:16;;;;;;;;;24.75;23.50;;;;;24.08;67.15;100662.63;5023128;28;45340;-83
2021/09/09 05:13:43;;;;;;;;;24.00;20.25;;;;;24.08;67.09;100654.69;5036095;28;45322;-83
2021/09/09 05:16:09;;;;;;;;;23.50;22.50;;;;;24.10;67.19;100658.19;5036250;28;45305;-83
2021/09/09 05:18:34;;;;;;;;;29.50;28.50;;;;;24.07;67.19;100658.22;5036045;28;46373;-82
2021/09/09 05:21:00;;;;;;;;;27.00;26.00;;;;;24.08;67.31;100662.63;5022468;28;45476;-82
2021/09/09 05:23:26;;;;;;;;;28.50;26.50;;;;;24.08;67.39;100667.91;5028068;28;45316;-82
2021/09/09 05:25:51;;;;;;;;;26.50;25.00;;;;;24.06;66.78;100663.53;5036258;28;45526;-82
2021/09/09 05:28:17;;;;;;;;;25.50;21.50;;;;;24.05;67.11;100667.06;5036140;28;45957;-83
2021/09/09 05:30:43;;;;;;;;;26.50;22.00;;;;;24.01;67.90;100663.59;5035185;28;45320;-83
2021/09/09 05:33:08;;;;;;;;;27.25;26.00;;;;;23.99;67.44;100668.03;5031009;28;45378;-83
2021/09/09 05:35:34;;;;;;;;;27.00;23.50;;;;;24.00;67.45;100674.19;5031963;28;45317;-82
2021/09/09 05:38:00;;;;;;;;;26.75;23.75;;;;;24.03;67.70;100677.66;5025360;28;46368;-82
2021/09/09 05:40:26;;;;;;;;;29.25;27.50;;;;;24.03;67.52;100672.38;5024796;28;45936;-82
2021/09/09 05:42:52;;;;;;;;;21.50;20.00;;;;;24.07;67.54;100691.75;5024173;28;45473;-83
2021/09/09 05:45:18;;;;;;;;;28.00;22.50;;;;;24.07;67.02;100699.66;5025358;28;45332;-83
2021/09/09 05:47:44;;;;;;;;;26.75;26.00;;;;;24.09;67.56;100697.84;5026752;28;45409;-83
2021/09/09 05:50:10;;;;;;;;;27.50;26.25;;;;;24.09;67.42;100705.78;5025774;28;45460;-82
2021/09/09 05:52:36;;;;;;;;;24.75;24.00;;;;;24.11;67.41;100718.13;5026298;28;45892;-83
2021/09/09 05:55:02;;;;;;;;;24.00;21.25;;;;;24.11;67.50;100715.47;5018127;28;45514;-83
2021/09/09 05:57:27;;;;;;;;;29.50;24.50;;;;;24.14;67.45;100721.59;5017436;28;45537;-84
2021/09/09 05:59:53;;;;;;;;;27.75;23.50;;;;;24.15;67.34;100728.63;5019568;28;45346;-85
2021/09/09 06:02:21;;;;;;;;;25.50;24.50;;;;;24.15;67.41;100723.34;5024151;28;45316;-87
2021/09/09 06:04:48;;;;;;;;;27.50;26.25;;;;;24.16;67.10;100717.16;5018636;28;45422;-86
2021/09/09 06:07:14;;;;;;;;;27.00;26.25;;;;;24.19;66.44;100727.72;5042695;28;46391;-84
2021/09/09 06:09:40;;;;;;;;;28.25;24.25;;;;;24.15;66.69;100729.53;5044963;28;45837;-85
2021/09/09 06:12:06;;;;;;;;;24.75;22.00;;;;;24.16;66.25;100727.75;5040050;28;45263;-88
2021/09/09 06:14:32;;;;;;;;;23.00;21.00;;;;;24.20;66.10;100730.34;5040925;28;45321;-83
2021/09/09 06:16:58;;;;;;;;;27.25;26.50;;;;;24.21;66.10;100733.88;5029220;28;45462;-82
2021/09/09 06:19:25;;;;;;;;;25.75;24.00;;;;;24.22;66.19;100732.97;5031270;28;45446;-81
2021/09/09 06:21:51;;;;;;;;;33.25;28.25;;;;;24.23;66.06;100732.94;5030055;28;45485;-82
2021/09/09 06:24:17;;;;;;;;;34.25;25.75;;;;;24.26;66.21;100737.31;5018573;28;45318;-83
2021/09/09 06:26:44;;;;;;;;;29.75;27.00;;;;;24.27;65.54;100733.78;5024485;28;46281;-83
2021/09/09 06:29:11;;;;;;;;;29.25;26.25;;;;;24.32;65.51;100737.25;5057485;28;45441;-83
2021/09/09 06:31:37;;;;;;;;;32.25;26.50;;;;;24.35;66.06;100741.63;5021374;28;45814;-80
2021/09/09 06:34:03;;;;;;;;;34.00;27.50;;;;;24.36;65.50;100738.06;5019879;28;45543;-84
2021/09/09 06:36:29;;;;;;;;;26.25;24.75;;;;;24.38;64.97;100746.88;5036516;28;46942;-85
2021/09/09 06:38:55;;;;;;;;;29.75;27.00;;;;;24.39;65.33;100745.97;5038452;28;45818;-84
2021/09/09 06:41:21;;;;;;;;;27.25;24.75;;;;;24.38;64.96;100746.88;5025250;28;45556;-84
2021/09/09 06:43:47;;;;;;;;;32.00;28.00;;;;;24.36;64.44;100746.88;5029146;28;45613;-83
2021/09/09 06:46:13;;;;;;;;;30.00;28.00;;;;;24.38;64.76;100757.47;5038179;28;46316;-81
2021/09/09 06:48:39;;;;;;;;;32.00;29.25;;;;;24.34;65.10;100756.63;5032742;28;45362;-81
2021/09/09 06:51:05;;;;;;;;;32.00;28.25;;;;;24.35;65.25;100763.66;5023319;28;45397;-81
2021/09/09 06:53:30;;;;;;;;;30.00;27.75;;;;;24.38;64.78;100766.25;5025098;28;45707;-83
2021/09/09 06:55:56;;;;;;;;;31.75;28.00;;;;;24.36;64.77;100767.19;5037383;28;45414;-82
2021/09/09 06:58:22;;;;;;;;;31.00;26.50;;;;;24.33;65.09;100770.75;5019352;28;45710;-82
2021/09/09 07:00:50;;;;;;;;;34.50;27.50;;;;;24.30;64.85;100770.78;5018366;28;45243;-82
2021/09/09 07:03:16;;;;;;;;;29.75;26.75;;;;;24.28;64.79;100772.56;5018980;28;45280;-83
2021/09/09 07:05:42;;;;;;;;;24.00;21.50;;;;;24.26;64.64;100769.06;5018109;28;45621;-83
2021/09/09 07:08:08;;;;;;;;;32.25;24.75;;;;;24.26;65.07;100766.41;5018375;28;45381;-82
2021/09/09 07:10:34;;;;;;;;;29.50;27.00;;;;;24.25;64.65;100760.25;5034182;28;45355;-82
2021/09/09 07:12:59;;;;;;;;;34.00;28.50;;;;;24.26;65.21;100766.41;5018461;28;45628;-82
2021/09/09 07:15:25;;;;;;;;;35.00;30.25;;;;;24.29;65.10;100765.53;5018702;28;45315;-82
2021/09/09 07:17:51;;;;;;;;;34.75;30.50;;;;;24.27;65.42;100773.47;5031896;28;45357;-81
2021/09/09 07:20:16;;;;;;;;;34.25;28.25;;;;;24.26;65.15;100761.13;5046558;28;45672;-82
2021/09/09 07:22:42;;;;;;;;;26.25;24.50;;;;;24.26;65.30;100766.41;5035861;28;45744;-83
2021/09/09 07:25:09;;;;;;;;;31.00;30.00;;;;;24.24;65.62;100763.81;5024888;28;45494;-83
2021/09/09 07:27:35;;;;;;;;;29.75;28.50;;;;;24.27;65.16;100777.00;5038073;28;45808;-83
2021/09/09 07:30:01;;;;;;;;;30.00;28.50;;;;;24.31;65.08;100782.22;5035481;28;45476;-83
2021/09/09 07:32:27;;;;;;;;;30.25;25.75;;;;;24.32;64.91;100774.28;5034328;28;45489;-82
2021/09/09 07:34:52;;;;;;;;;33.00;29.25;;;;;24.33;64.91;100769.88;5017160;28;45469;-82
2021/09/09 07:37:18;;;;;;;;;30.75;28.75;;;;;24.33;65.20;100767.22;5018250;28;45476;-84
2021/09/09 07:39:43;;;;;;;;;31.50;26.75;;;;;24.34;64.77;100767.22;5026604;28;45339;-83
2021/09/09 07:42:09;;;;;;;;;31.75;27.75;;;;;24.35;64.83;100768.94;5020078;28;45557;-83
2021/09/09 07:44:35;;;;;;;;;30.50;28.75;;;;;24.39;64.65;100770.66;5018963;28;45882;-82
2021/09/09 07:47:01;;;;;;;;;31.75;26.25;;;;;24.40;64.21;100767.13;5022767;28;45409;-83
2021/09/09 07:49:28;;;;;;;;;22.50;22.00;;;;;24.41;64.62;100775.91;5025201;28;45169;-86
2021/09/09 07:51:57;;;;;;;;;27.25;25.00;;;;;24.41;64.29;100775.91;5032487;28;45227;-88
2021/09/09 07:54:22;;;;;;;;;25.50;24.50;;;;;24.41;64.40;100778.56;5032758;28;46410;-86
2021/09/09 07:56:54;;;;;;;;;20.75;18.50;;;;;24.40;64.51;100779.50;5020306;28;45490;-84
2021/09/09 07:59:20;;;;;;;;;27.25;25.75;;;;;24.38;64.13;100784.78;5027124;28;45350;-82
2021/09/09 08:01:45;;;;;;;;;26.25;22.75;;;;;24.37;64.00;100763.66;5054022;28;45224;-84
2021/09/09 08:04:15;;;;;;;;;24.00;22.50;;;;;24.41;64.40;100771.53;5037121;28;45442;-83
2021/09/09 08:06:43;;;;;;;;;23.25;19.25;;;;;24.41;63.42;100776.81;5035592;28;45727;-83
2021/09/09 08:09:10;;;;;;;;;24.25;19.00;;;;;24.36;63.31;100775.13;5032588;28;45695;-82
2021/09/09 08:11:39;;;;;;;;;27.25;22.50;;;;;24.34;63.67;100782.19;5026139;28;45620;-81
2021/09/09 08:14:04;;;;;;;;;29.00;23.75;;;;;24.25;63.92;100770.84;5020715;28;47475;-82
2021/09/09 08:16:31;;;;;;;;;26.50;22.00;;;;;24.26;63.37;100782.28;5037207;28;45467;-81
2021/09/09 08:18:56;;;;;;;;;19.75;19.00;;;;;24.24;63.51;100777.03;5034527;28;45822;-81
2021/09/09 08:21:22;;;;;;;;;22.25;20.25;;;;;24.27;63.53;100778.75;5037246;28;45711;-80
2021/09/09 08:23:48;;;;;;;;;21.00;20.00;;;;;24.31;63.44;100780.47;5035648;28;46564;-81
2021/09/09 08:26:16;;;;;;;;;23.25;21.75;;;;;24.35;64.05;100784.81;5024421;28;45212;-81
2021/09/09 08:28:42;;;;;;;;;24.25;21.00;;;;;24.38;63.59;100787.44;5019117;28;45481;-82
2021/09/09 08:31:08;;;;;;;;;23.00;19.75;;;;;24.34;64.84;100784.84;5028187;28;45321;-83
2021/09/09 08:33:33;;;;;;;;;26.75;24.75;;;;;24.20;64.86;100792.97;5030401;28;46261;-81
2021/09/09 08:36:04;;;;;;;;;22.75;21.50;;;;;24.07;65.74;100793.09;5036421;28;45428;-81
2021/09/09 08:38:29;;;;;;;;;26.25;23.75;;;;;24.00;65.37;100793.19;5038580;28;45282;-83
2021/09/09 08:40:55;;;;;;;;;31.75;25.75;;;;;23.91;66.06;100788.88;5033037;28;44883;-83
2021/09/09 08:43:21;;;;;;;;;27.50;24.00;;;;;23.88;67.10;100792.41;5035688;28;45432;-82
2021/09/09 08:45:52;;;;;;;;;27.25;25.75;;;;;23.89;68.05;100793.28;5020065;28;45516;-82
2021/09/09 08:48:18;;;;;;;;;31.25;27.00;;;;;23.89;67.95;100798.56;5024788;28;45216;-83
2021/09/09 08:50:44;;;;;;;;;27.25;26.00;;;;;23.94;68.09;100802.03;5031807;28;45322;-82
2021/09/09 08:53:11;;;;;;;;;27.75;26.25;;;;;23.95;67.86;100807.34;5025375;28;46045;-80
2021/09/09 08:55:37;;;;;;;;;28.00;25.75;;;;;24.00;68.04;100802.00;5016277;28;45903;-81
2021/09/09 08:58:05;;;;;;;;;27.25;23.75;;;;;24.08;67.80;100794.84;5016981;28;45430;-81
2021/09/09 09:00:31;;;;;;;;;29.00;24.75;;;;;24.16;67.33;100794.78;5017598;28;45450;-80
2021/09/09 09:02:57;;;;;;;;;26.75;22.75;;;;;24.20;66.66;100799.13;5016511;28;45281;-80
2021/09/09 09:05:24;;;;;;;;;26.75;24.25;;;;;24.17;67.39;100799.19;5019041;28;45301;-81
2021/09/09 09:08:05;;;;;;;;;29.50;26.50;;;;;24.20;67.70;100798.25;5022864;28;45346;-81
2021/09/09 09:10:32;;;;;;;;;26.50;23.00;;;;;24.22;66.92;100802.63;5017306;28;45609;-80
2021/09/09 09:12:59;;;;;;;;;25.25;21.00;;;;;24.23;66.84;100806.16;5016725;28;45566;-81
2021/09/09 09:15:27;;;;;;;;;27.75;22.50;;;;;24.19;66.64;100804.44;5031527;28;45668;-84
2021/09/09 09:18:08;;;;;;;;;27.00;23.50;;;;;24.23;66.81;100804.38;5015800;28;45487;-79
2021/09/09 09:20:52;;;;;;;;;28.75;24.00;;;;;24.27;66.32;100805.22;5016217;28;45447;-81
2021/09/09 09:23:26;;;;;;;;;24.25;23.00;;;;;24.29;66.18;100799.91;5020079;28;45771;-82
2021/09/09 09:26:13;;;;;;;;;23.50;22.50;;;;;24.31;66.18;100801.66;5015799;28;46234;-82
2021/09/09 09:28:49;;;;;;;;;24.75;24.25;;;;;24.43;66.01;100803.25;5016048;28;45330;-80
2021/09/09 09:31:26;;;;;;;;;25.50;23.50;;;;;24.55;65.67;100803.09;5017497;28;45260;-83
2021/09/09 09:33:56;;;;;;;;;30.50;25.50;;;;;24.60;65.68;100805.66;5021038;28;48055;-83
2021/09/09 09:36:34;;;;;;;;;26.75;22.25;;;;;24.66;65.69;100802.97;5022387;28;45665;-83
2021/09/09 09:39:09;;;;;;;;;27.25;25.00;;;;;24.66;64.89;100802.97;5037476;28;45181;-83
2021/09/09 09:41:36;;;;;;;;;26.00;23.75;;;;;24.64;65.20;100807.38;5015849;28;45190;-82
2021/09/09 09:44:06;;;;;;;;;24.25;22.50;;;;;24.65;64.95;100803.84;5015807;28;45399;-83
2021/09/09 09:46:36;;;;;;;;;27.75;24.25;;;;;24.66;65.21;100807.34;5017005;28;45613;-83
2021/09/09 09:49:19;;;;;;;;;23.00;20.75;;;;;24.72;65.02;100810.84;5019374;28;45430;-82
2021/09/09 09:51:48;;;;;;;;;27.50;24.25;;;;;24.81;64.58;100801.00;5037391;28;45227;-82
2021/09/09 09:54:15;;;;;;;;;27.75;26.25;;;;;24.91;65.07;100792.03;5037395;28;46445;-82
2021/09/09 09:56:43;;;;;;;;;26.50;23.00;;;;;25.06;64.38;100806.78;5037932;28;45279;-83
2021/09/09 09:59:09;;;;;;;;;29.75;20.50;;;;;25.19;63.66;100804.84;5041475;28;45336;-82
2021/09/09 10:01:35;;;;;;;;;22.75;21.75;;;;;25.25;63.38;100807.38;5042623;28;45230;-82
2021/09/09 10:04:06;;;;;;;;;17.25;16.25;;;;;25.24;63.76;100802.97;5042264;28;45378;-81
2021/09/09 10:06:33;;;;;;;;;20.00;18.00;;;;;25.31;63.23;100801.09;5041634;28;45648;-81
2021/09/09 10:09:00;;;;;;;;;21.00;20.00;;;;;25.39;62.45;100806.28;5041339;28;45393;-83
2021/09/09 10:11:26;;;;;;;;;20.50;19.00;;;;;25.42;62.90;100795.69;5041070;28;45330;-83
2021/09/09 10:13:53;;;;;;;;;19.50;17.75;;;;;25.44;62.78;100807.09;5041290;28;45651;-82
2021/09/09 10:16:23;;;;;;;;;22.50;18.50;;;;;25.47;62.58;100813.25;5039946;28;45779;-83
2021/09/09 10:18:50;;;;;;;;;21.50;18.75;;;;;25.50;62.48;100807.88;5044263;28;44729;-83
2021/09/09 10:21:45;;;;;;;;;24.00;19.50;;;;;25.59;62.72;100804.19;5057904;28;45312;-82
2021/09/09 10:24:17;;;;;;;;;22.75;19.50;;;;;25.72;62.26;100799.53;5041808;28;46075;-83
2021/09/09 10:26:42;;;;;;;;;20.75;19.50;;;;;25.80;61.49;100797.63;5044896;28;45198;-83
2021/09/09 10:29:43;;;;;;;;;23.25;19.25;;;;;25.78;60.85;100798.53;5047752;28;45205;-83
2021/09/09 10:32:29;;;;;;;;;18.25;15.50;;;;;25.74;60.68;100796.88;5041454;28;45401;-83
2021/09/09 10:35:33;;;;;;;;;20.50;18.50;;;;;25.79;61.14;100802.94;5038883;28;45977;-84
2021/09/09 10:38:19;;;;;;;;;16.75;14.00;;;;;25.82;60.11;100797.59;4957686;28;45452;-81
2021/09/09 10:40:46;;;;;;;;;20.50;16.25;;;;;25.87;60.02;100797.50;4957934;28;45651;-83
2021/09/09 10:43:13;;;;;;;;;18.25;18.00;;;;;25.93;60.20;100797.38;5007600;28;45527;-83
2021/09/09 10:45:44;;;;;;;;;15.00;15.00;;;;;25.98;59.71;100802.59;5038636;28;45443;-83
2021/09/09 10:48:15;;;;;;;;;16.75;15.75;;;;;25.93;59.90;100800.03;5038499;28;45673;-83
2021/09/09 10:50:59;;;;;;;;;19.25;17.50;;;;;25.88;59.37;100799.25;5040236;28;45304;-83
2021/09/09 10:53:42;;;;;;;;;22.50;17.50;;;;;25.81;59.50;100796.69;5045178;28;45288;-84
2021/09/09 10:56:12;;;;;;;;;15.00;13.00;;;;;25.77;58.17;100802.09;5043056;28;45350;-84
2021/09/09 10:58:39;;;;;;;;;15.00;12.75;;;;;25.68;58.83;100795.22;5039783;28;45963;-83
2021/09/09 11:01:06;;;;;;;;;12.50;11.00;;;;;25.69;59.22;100799.63;5038823;28;45398;-82
2021/09/09 11:03:42;;;;;;;;;15.50;12.00;;;;;25.71;58.51;100805.75;5038872;28;45280;-83
2021/09/09 11:06:15;;;;;;;;;8.25;8.25;;;;;25.64;56.52;100804.09;5038118;28;46276;-83
2021/09/09 11:08:43;;;;;;;;;10.25;8.75;;;;;25.53;57.22;100796.38;5038058;28;45504;-83
2021/09/09 11:11:15;;;;;;;;;10.75;10.25;;;;;25.47;55.91;100789.41;5038556;28;45318;-84